sensor_id;sensor_type;location;lat;lon;timestamp;pressure;altitude;pressure_sealevel;temperature;humidity
8047;BME280;74083;42.516;23.358;2024-01-11T00:02:34;88944.56;;;-0.39;62.26
8047;BME280;74083;42.516;23.358;2024-01-11T00:05:21;88942.09;;;-0.39;62.37
8047;BME280;74083;42.516;23.358;2024-01-11T00:08:06;88939.63;;;-0.39;62.45
8047;BME280;74083;42.516;23.358;2024-01-11T00:10:52;88935.50;;;-0.40;62.41
8047;BME280;74083;42.516;23.358;2024-01-11T00:13:37;88932.19;;;-0.39;62.47
8047;BME280;74083;42.516;23.358;2024-01-11T00:16:22;88933.03;;;-0.40;62.27
8047;BME280;74083;42.516;23.358;2024-01-11T00:19:08;88926.44;;;-0.41;62.30
8047;BME280;74083;42.516;23.358;2024-01-11T00:21:56;88932.28;;;-0.42;62.27
8047;BME280;74083;42.516;23.358;2024-01-11T00:24:41;88919.09;;;-0.44;62.14
8047;BME280;74083;42.516;23.358;2024-01-11T00:27:27;88917.44;;;-0.43;62.29
8047;BME280;74083;42.516;23.358;2024-01-11T00:30:13;88916.59;;;-0.42;62.10
8047;BME280;74083;42.516;23.358;2024-01-11T00:32:59;88912.47;;;-0.42;62.24
8047;BME280;74083;42.516;23.358;2024-01-11T00:35:44;88912.50;;;-0.43;62.38
8047;BME280;74083;42.516;23.358;2024-01-11T00:38:31;88915.06;;;-0.46;62.36
8047;BME280;74083;42.516;23.358;2024-01-11T00:41:17;88918.41;;;-0.47;62.07
8047;BME280;74083;42.516;23.358;2024-01-11T00:44:03;88910.91;;;-0.46;62.24
8047;BME280;74083;42.516;23.358;2024-01-11T00:46:49;88913.41;;;-0.46;62.04
8047;BME280;74083;42.516;23.358;2024-01-11T00:49:34;88906.78;;;-0.45;62.07
8047;BME280;74083;42.516;23.358;2024-01-11T00:52:20;88905.13;;;-0.45;62.19
8047;BME280;74083;42.516;23.358;2024-01-11T00:55:07;88907.59;;;-0.45;62.33
8047;BME280;74083;42.516;23.358;2024-01-11T00:57:53;88900.19;;;-0.45;62.16
8047;BME280;74083;42.516;23.358;2024-01-11T01:00:38;88892.69;;;-0.43;62.21
8047;BME280;74083;42.516;23.358;2024-01-11T01:03:24;88894.34;;;-0.44;62.43
8047;BME280;74083;42.516;23.358;2024-01-11T01:06:09;88892.75;;;-0.45;62.28
8047;BME280;74083;42.516;23.358;2024-01-11T01:08:55;88887.81;;;-0.46;62.22
8047;BME280;74083;42.516;23.358;2024-01-11T01:11:42;88899.38;;;-0.47;62.31
8047;BME280;74083;42.516;23.358;2024-01-11T01:14:28;88897.72;;;-0.46;62.34
8047;BME280;74083;42.516;23.358;2024-01-11T01:17:13;88889.50;;;-0.47;62.17
8047;BME280;74083;42.516;23.358;2024-01-11T01:19:59;88895.31;;;-0.48;62.05
8047;BME280;74083;42.516;23.358;2024-01-11T01:22:45;88883.84;;;-0.50;61.92
8047;BME280;74083;42.516;23.358;2024-01-11T01:25:31;88889.69;;;-0.53;61.73
8047;BME280;74083;42.516;23.358;2024-01-11T01:28:18;88894.50;;;-0.48;61.95
8047;BME280;74083;42.516;23.358;2024-01-11T01:31:04;88885.41;;;-0.48;61.80
8047;BME280;74083;42.516;23.358;2024-01-11T01:33:49;88886.25;;;-0.49;61.80
8047;BME280;74083;42.516;23.358;2024-01-11T01:36:35;88884.66;;;-0.50;61.83
8047;BME280;74083;42.516;23.358;2024-01-11T01:39:20;88884.66;;;-0.50;62.02
8047;BME280;74083;42.516;23.358;2024-01-11T01:42:05;88884.66;;;-0.51;62.03
8047;BME280;74083;42.516;23.358;2024-01-11T01:44:52;88886.34;;;-0.52;62.13
8047;BME280;74083;42.516;23.358;2024-01-11T01:47:40;88881.38;;;-0.52;61.90
8047;BME280;74083;42.516;23.358;2024-01-11T01:50:26;88883.91;;;-0.53;61.97
8047;BME280;74083;42.516;23.358;2024-01-11T01:53:12;88883.09;;;-0.54;61.79
8047;BME280;74083;42.516;23.358;2024-01-11T01:55:58;88868.25;;;-0.54;61.76
8047;BME280;74083;42.516;23.358;2024-01-11T01:58:43;88869.97;;;-0.56;61.87
8047;BME280;74083;42.516;23.358;2024-01-11T02:01:30;88870.81;;;-0.57;61.86
8047;BME280;74083;42.516;23.358;2024-01-11T02:04:16;88855.19;;;-0.59;61.72
8047;BME280;74083;42.516;23.358;2024-01-11T02:07:01;88856.72;;;-0.55;61.80
8047;BME280;74083;42.516;23.358;2024-01-11T02:09:48;88857.59;;;-0.56;61.62
8047;BME280;74083;42.516;23.358;2024-01-11T02:12:35;88859.34;;;-0.61;61.76
8047;BME280;74083;42.516;23.358;2024-01-11T02:15:21;88851.84;;;-0.58;61.63
8047;BME280;74083;42.516;23.358;2024-01-11T02:18:10;88841.19;;;-0.60;61.48
8047;BME280;74083;42.516;23.358;2024-01-11T02:20:55;88842.78;;;-0.58;61.57
8047;BME280;74083;42.516;23.358;2024-01-11T02:23:43;88851.00;;;-0.57;61.50
8047;BME280;74083;42.516;23.358;2024-01-11T02:26:32;88849.44;;;-0.60;61.68
8047;BME280;74083;42.516;23.358;2024-01-11T02:29:18;88838.72;;;-0.60;61.69
8047;BME280;74083;42.516;23.358;2024-01-11T02:32:04;88843.69;;;-0.62;61.56
8047;BME280;74083;42.516;23.358;2024-01-11T02:34:50;88840.44;;;-0.62;61.69
8047;BME280;74083;42.516;23.358;2024-01-11T02:37:37;88844.56;;;-0.63;61.62
8047;BME280;74083;42.516;23.358;2024-01-11T02:40:23;88842.13;;;-0.64;61.48
8047;BME280;74083;42.516;23.358;2024-01-11T02:43:10;88839.63;;;-0.64;61.62
8047;BME280;74083;42.516;23.358;2024-01-11T02:45:56;88840.44;;;-0.62;61.46
8047;BME280;74083;42.516;23.358;2024-01-11T02:48:42;88837.16;;;-0.64;61.55
8047;BME280;74083;42.516;23.358;2024-01-11T02:51:28;88842.91;;;-0.62;61.79
8047;BME280;74083;42.516;23.358;2024-01-11T02:54:13;88839.63;;;-0.64;61.59
8047;BME280;74083;42.516;23.358;2024-01-11T02:56:59;88835.56;;;-0.65;61.61
8047;BME280;74083;42.516;23.358;2024-01-11T02:59:46;88834.75;;;-0.66;61.57
8047;BME280;74083;42.516;23.358;2024-01-11T03:02:31;88833.13;;;-0.67;61.57
8047;BME280;74083;42.516;23.358;2024-01-11T03:05:17;88829.81;;;-0.66;61.54
8047;BME280;74083;42.516;23.358;2024-01-11T03:08:03;88829.75;;;-0.64;61.46
8047;BME280;74083;42.516;23.358;2024-01-11T03:10:48;88824.84;;;-0.66;61.38
8047;BME280;74083;42.516;23.358;2024-01-11T03:13:34;88823.22;;;-0.67;61.27
8047;BME280;74083;42.516;23.358;2024-01-11T03:16:21;88824.03;;;-0.66;61.33
8047;BME280;74083;42.516;23.358;2024-01-11T03:19:07;88819.16;;;-0.68;61.50
8047;BME280;74083;42.516;23.358;2024-01-11T03:21:52;88822.41;;;-0.67;61.53
8047;BME280;74083;42.516;23.358;2024-01-11T03:24:38;88818.34;;;-0.70;61.50
8047;BME280;74083;42.516;23.358;2024-01-11T03:27:25;88817.50;;;-0.69;61.52
8047;BME280;74083;42.516;23.358;2024-01-11T03:30:10;88820.00;;;-0.69;61.42
8047;BME280;74083;42.516;23.358;2024-01-11T03:32:58;88817.53;;;-0.70;61.42
8047;BME280;74083;42.516;23.358;2024-01-11T03:35:43;88811.00;;;-0.71;61.54
8047;BME280;74083;42.516;23.358;2024-01-11T03:38:29;88802.78;;;-0.73;61.13
8047;BME280;74083;42.516;23.358;2024-01-11T03:41:15;88805.22;;;-0.72;61.16
8047;BME280;74083;42.516;23.358;2024-01-11T03:44:00;88803.59;;;-0.73;61.27
8047;BME280;74083;42.516;23.358;2024-01-11T03:46:45;88808.53;;;-0.73;61.16
8047;BME280;74083;42.516;23.358;2024-01-11T03:49:32;88801.13;;;-0.73;61.32
8047;BME280;74083;42.516;23.358;2024-01-11T03:52:18;88800.28;;;-0.72;61.42
8047;BME280;74083;42.516;23.358;2024-01-11T03:55:04;88799.44;;;-0.71;61.58
8047;BME280;74083;42.516;23.358;2024-01-11T03:57:50;88797.81;;;-0.73;61.47
8047;BME280;74083;42.516;23.358;2024-01-11T04:00:36;88795.44;;;-0.76;61.34
8047;BME280;74083;42.516;23.358;2024-01-11T04:03:22;88797.81;;;-0.73;61.44
8047;BME280;74083;42.516;23.358;2024-01-11T04:06:18;88801.09;;;-0.71;61.48
8047;BME280;74083;42.516;23.358;2024-01-11T04:09:05;88798.69;;;-0.74;61.52
8047;BME280;74083;42.516;23.358;2024-01-11T04:11:50;88793.78;;;-0.76;61.69
8047;BME280;74083;42.516;23.358;2024-01-11T04:14:38;88797.03;;;-0.74;61.56
8047;BME280;74083;42.516;23.358;2024-01-11T04:17:24;88789.66;;;-0.75;61.59
8047;BME280;74083;42.516;23.358;2024-01-11T04:20:10;88788.03;;;-0.76;61.53
8047;BME280;74083;42.516;23.358;2024-01-11T04:22:57;88788.03;;;-0.76;61.55
8047;BME280;74083;42.516;23.358;2024-01-11T04:25:43;88784.78;;;-0.78;61.61
8047;BME280;74083;42.516;23.358;2024-01-11T04:28:28;88788.09;;;-0.79;61.47
8047;BME280;74083;42.516;23.358;2024-01-11T04:31:14;88786.50;;;-0.80;61.46
8047;BME280;74083;42.516;23.358;2024-01-11T04:34:00;88787.31;;;-0.80;61.42
8047;BME280;74083;42.516;23.358;2024-01-11T04:36:46;88779.91;;;-0.80;61.48
8047;BME280;74083;42.516;23.358;2024-01-11T04:39:33;88779.91;;;-0.81;61.51
8047;BME280;74083;42.516;23.358;2024-01-11T04:42:18;88784.03;;;-0.80;61.52
8047;BME280;74083;42.516;23.358;2024-01-11T04:45:05;88785.75;;;-0.82;61.18
8047;BME280;74083;42.516;23.358;2024-01-11T04:47:51;88782.41;;;-0.81;61.41
8047;BME280;74083;42.516;23.358;2024-01-11T04:50:36;88781.63;;;-0.83;61.63
8047;BME280;74083;42.516;23.358;2024-01-11T04:53:22;88789.81;;;-0.81;61.33
8047;BME280;74083;42.516;23.358;2024-01-11T04:56:10;88784.13;;;-0.85;61.47
8047;BME280;74083;42.516;23.358;2024-01-11T04:58:56;88780.00;;;-0.84;61.37
8047;BME280;74083;42.516;23.358;2024-01-11T05:01:42;88790.69;;;-0.82;61.38
8047;BME280;74083;42.516;23.358;2024-01-11T05:04:27;88786.59;;;-0.83;61.41
8047;BME280;74083;42.516;23.358;2024-01-11T05:07:13;88784.94;;;-0.84;61.45
8047;BME280;74083;42.516;23.358;2024-01-11T05:09:59;88788.25;;;-0.84;61.61
8047;BME280;74083;42.516;23.358;2024-01-11T05:12:46;88786.59;;;-0.85;61.46
8047;BME280;74083;42.516;23.358;2024-01-11T05:15:31;88788.31;;;-0.87;61.43
8047;BME280;74083;42.516;23.358;2024-01-11T05:18:17;88780.91;;;-0.87;61.44
8047;BME280;74083;42.516;23.358;2024-01-11T05:21:02;88772.66;;;-0.87;61.41
8047;BME280;74083;42.516;23.358;2024-01-11T05:23:49;88771.84;;;-0.88;61.42
8047;BME280;74083;42.516;23.358;2024-01-11T05:26:35;88771.00;;;-0.87;61.31
8047;BME280;74083;42.516;23.358;2024-01-11T05:29:22;88766.91;;;-0.88;61.24
8047;BME280;74083;42.516;23.358;2024-01-11T05:32:08;88760.34;;;-0.89;61.41
8047;BME280;74083;42.516;23.358;2024-01-11T05:34:53;88761.19;;;-0.90;61.39
8047;BME280;74083;42.516;23.358;2024-01-11T05:37:39;88762.81;;;-0.89;61.33
8047;BME280;74083;42.516;23.358;2024-01-11T05:40:25;88752.88;;;-0.87;61.38
8047;BME280;74083;42.516;23.358;2024-01-11T05:43:11;88756.16;;;-0.87;61.56
8047;BME280;74083;42.516;23.358;2024-01-11T05:45:58;88754.53;;;-0.88;61.67
8047;BME280;74083;42.516;23.358;2024-01-11T05:48:44;88753.75;;;-0.88;61.68
8047;BME280;74083;42.516;23.358;2024-01-11T05:51:30;88748.84;;;-0.90;61.70
8047;BME280;74083;42.516;23.358;2024-01-11T05:54:16;88752.13;;;-0.89;61.70
8047;BME280;74083;42.516;23.358;2024-01-11T05:57:01;88748.88;;;-0.91;61.65
8047;BME280;74083;42.516;23.358;2024-01-11T05:59:47;88745.63;;;-0.93;61.54
8047;BME280;74083;42.516;23.358;2024-01-11T06:02:36;88748.91;;;-0.93;61.50
8047;BME280;74083;42.516;23.358;2024-01-11T06:05:21;88735.81;;;-0.96;61.52
8047;BME280;74083;42.516;23.358;2024-01-11T06:08:07;88745.63;;;-0.93;61.43
8047;BME280;74083;42.516;23.358;2024-01-11T06:10:53;88734.16;;;-0.96;61.59
8047;BME280;74083;42.516;23.358;2024-01-11T06:13:40;88737.50;;;-0.97;61.48
8047;BME280;74083;42.516;23.358;2024-01-11T06:16:26;88734.22;;;-0.97;61.51
8047;BME280;74083;42.516;23.358;2024-01-11T06:19:13;88745.72;;;-0.96;61.47
8047;BME280;74083;42.516;23.358;2024-01-11T06:21:59;88749.88;;;-0.97;61.57
8047;BME280;74083;42.516;23.358;2024-01-11T06:24:45;88736.69;;;-0.97;61.73
8047;BME280;74083;42.516;23.358;2024-01-11T06:27:31;88737.63;;;-1.01;61.57
8047;BME280;74083;42.516;23.358;2024-01-11T06:30:16;88741.63;;;-0.97;61.81
8047;BME280;74083;42.516;23.358;2024-01-11T06:33:02;88743.28;;;-0.98;61.44
8047;BME280;74083;42.516;23.358;2024-01-11T06:35:49;88749.88;;;-0.97;61.92
8047;BME280;74083;42.516;23.358;2024-01-11T06:38:35;88739.97;;;-0.97;61.90
8047;BME280;74083;42.516;23.358;2024-01-11T06:41:21;88742.44;;;-0.97;62.02
8047;BME280;74083;42.516;23.358;2024-01-11T06:44:07;88739.97;;;-0.97;62.10
8047;BME280;74083;42.516;23.358;2024-01-11T06:46:52;88730.88;;;-0.96;62.33
8047;BME280;74083;42.516;23.358;2024-01-11T06:49:38;88735.81;;;-0.96;62.32
8047;BME280;74083;42.516;23.358;2024-01-11T06:52:26;88725.94;;;-0.96;62.30
8047;BME280;74083;42.516;23.358;2024-01-11T06:55:12;88722.63;;;-0.95;62.26
8047;BME280;74083;42.516;23.358;2024-01-11T06:57:58;88718.47;;;-0.95;62.45
8047;BME280;74083;42.516;23.358;2024-01-11T07:00:46;88720.13;;;-0.95;62.64
8047;BME280;74083;42.516;23.358;2024-01-11T07:03:31;88721.78;;;-0.96;62.74
8047;BME280;74083;42.516;23.358;2024-01-11T07:06:17;88720.13;;;-0.95;62.54
8047;BME280;74083;42.516;23.358;2024-01-11T07:09:04;88715.19;;;-0.95;62.68
8047;BME280;74083;42.516;23.358;2024-01-11T07:11:50;88717.66;;;-0.95;62.79
8047;BME280;74083;42.516;23.358;2024-01-11T07:14:36;88709.50;;;-0.97;62.66
8047;BME280;74083;42.516;23.358;2024-01-11T07:17:21;88711.88;;;-0.94;62.74
8047;BME280;74083;42.516;23.358;2024-01-11T07:20:08;88712.66;;;-0.94;62.65
8047;BME280;74083;42.516;23.358;2024-01-11T07:22:54;88715.94;;;-0.93;62.84
8047;BME280;74083;42.516;23.358;2024-01-11T07:25:41;88714.28;;;-0.91;62.93
8047;BME280;74083;42.516;23.358;2024-01-11T07:28:27;88712.63;;;-0.92;62.94
8047;BME280;74083;42.516;23.358;2024-01-11T07:31:12;88715.06;;;-0.91;63.02
8047;BME280;74083;42.516;23.358;2024-01-11T07:33:58;88714.19;;;-0.88;63.18
8047;BME280;74083;42.516;23.358;2024-01-11T07:36:43;88719.91;;;-0.88;63.12
8047;BME280;74083;42.516;23.358;2024-01-11T07:39:28;88708.38;;;-0.87;63.16
8047;BME280;74083;42.516;23.358;2024-01-11T07:42:16;88713.31;;;-0.87;63.28
8047;BME280;74083;42.516;23.358;2024-01-11T07:45:04;88710.03;;;-0.88;63.48
8047;BME280;74083;42.516;23.358;2024-01-11T07:47:50;88710.84;;;-0.87;63.48
8047;BME280;74083;42.516;23.358;2024-01-11T07:50:35;88713.31;;;-0.87;63.56
8047;BME280;74083;42.516;23.358;2024-01-11T07:53:21;88714.13;;;-0.87;63.72
8047;BME280;74083;42.516;23.358;2024-01-11T07:56:07;88712.47;;;-0.86;63.71
8047;BME280;74083;42.516;23.358;2024-01-11T07:58:54;88714.09;;;-0.85;63.98
8047;BME280;74083;42.516;23.358;2024-01-11T08:01:40;88714.94;;;-0.86;64.21
8047;BME280;74083;42.516;23.358;2024-01-11T08:04:25;88716.44;;;-0.81;63.86
8047;BME280;74083;42.516;23.358;2024-01-11T08:07:11;88711.53;;;-0.82;64.09
8047;BME280;74083;42.516;23.358;2024-01-11T08:09:56;88709.06;;;-0.82;64.21
8047;BME280;74083;42.516;23.358;2024-01-11T08:12:42;88701.59;;;-0.81;64.08
8047;BME280;74083;42.516;23.358;2024-01-11T08:15:29;88697.47;;;-0.80;64.11
8047;BME280;74083;42.516;23.358;2024-01-11T08:18:14;88697.38;;;-0.77;63.96
8047;BME280;74083;42.516;23.358;2024-01-11T08:21:01;88698.13;;;-0.75;63.98
8047;BME280;74083;42.516;23.358;2024-01-11T08:23:47;88700.75;;;-0.80;64.22
8047;BME280;74083;42.516;23.358;2024-01-11T08:26:33;88697.38;;;-0.77;64.32
8047;BME280;74083;42.516;23.358;2024-01-11T08:29:18;88701.53;;;-0.79;64.20
8047;BME280;74083;42.516;23.358;2024-01-11T08:32:06;88696.25;;;-0.67;63.94
8047;BME280;74083;42.516;23.358;2024-01-11T08:34:52;88698.72;;;-0.67;63.89
8047;BME280;74083;42.516;23.358;2024-01-11T08:37:37;88696.94;;;-0.62;63.58
8047;BME280;74083;42.516;23.358;2024-01-11T08:57:06;88687.28;;;-0.43;64.22
8047;BME280;74083;42.516;23.358;2024-01-11T08:59:52;88685.00;;;-0.23;63.02
8047;BME280;74083;42.516;23.358;2024-01-11T09:02:38;88678.00;;;-0.35;63.04
8047;BME280;74083;42.516;23.358;2024-01-11T09:05:24;88677.16;;;-0.36;63.42
8047;BME280;74083;42.516;23.358;2024-01-11T09:08:09;88682.97;;;-0.37;62.88
8047;BME280;74083;42.516;23.358;2024-01-11T09:10:55;88680.66;;;-0.41;63.00
8047;BME280;74083;42.516;23.358;2024-01-11T09:13:43;88680.19;;;-0.54;63.86
8047;BME280;74083;42.516;23.358;2024-01-11T09:16:29;88678.72;;;-0.60;64.26
8047;BME280;74083;42.516;23.358;2024-01-11T09:19:15;88671.50;;;-0.67;65.20
8047;BME280;74083;42.516;23.358;2024-01-11T09:22:01;88671.56;;;-0.69;64.94
8047;BME280;74083;42.516;23.358;2024-01-11T09:24:47;88666.63;;;-0.70;65.48
8047;BME280;74083;42.516;23.358;2024-01-11T09:27:33;88669.25;;;-0.75;66.40
8047;BME280;74083;42.516;23.358;2024-01-11T09:30:20;88666.72;;;-0.73;66.49
8047;BME280;74083;42.516;23.358;2024-01-11T09:33:06;88658.78;;;-0.83;67.96
8047;BME280;74083;42.516;23.358;2024-01-11T09:35:52;88657.00;;;-0.79;67.27
8047;BME280;74083;42.516;23.358;2024-01-11T09:38:37;88654.91;;;-0.91;68.66
8047;BME280;74083;42.516;23.358;2024-01-11T09:41:23;88657.56;;;-0.97;69.66
8047;BME280;74083;42.516;23.358;2024-01-11T09:44:09;88652.47;;;-0.93;69.09
8047;BME280;74083;42.516;23.358;2024-01-11T09:46:58;88645.22;;;-0.97;69.03
8047;BME280;74083;42.516;23.358;2024-01-11T09:49:48;88650.31;;;-1.03;69.24
8047;BME280;74083;42.516;23.358;2024-01-11T09:52:35;88644.50;;;-1.02;69.41
8047;BME280;74083;42.516;23.358;2024-01-11T09:55:22;88641.25;;;-1.03;69.21
8047;BME280;74083;42.516;23.358;2024-01-11T09:58:09;88639.56;;;-1.02;68.68
8047;BME280;74083;42.516;23.358;2024-01-11T10:00:55;88631.44;;;-1.06;69.09
8047;BME280;74083;42.516;23.358;2024-01-11T10:03:45;88622.25;;;-1.02;68.41
8047;BME280;74083;42.516;23.358;2024-01-11T10:06:32;88615.88;;;-1.09;68.11
8047;BME280;74083;42.516;23.358;2024-01-11T10:09:19;88612.63;;;-1.12;68.71
8047;BME280;74083;42.516;23.358;2024-01-11T10:12:06;88609.22;;;-1.07;68.67
8047;BME280;74083;42.516;23.358;2024-01-11T10:14:53;88606.84;;;-1.10;68.71
8047;BME280;74083;42.516;23.358;2024-01-11T10:17:41;88601.09;;;-1.11;68.63
8047;BME280;74083;42.516;23.358;2024-01-11T10:20:29;88596.13;;;-1.11;68.65
8047;BME280;74083;42.516;23.358;2024-01-11T10:23:17;88599.34;;;-1.07;68.75
8047;BME280;74083;42.516;23.358;2024-01-11T10:26:03;88596.84;;;-1.06;68.71
8047;BME280;74083;42.516;23.358;2024-01-11T10:28:49;88590.13;;;-1.02;68.99
8047;BME280;74083;42.516;23.358;2024-01-11T10:31:34;88599.91;;;-0.99;69.08
8047;BME280;74083;42.516;23.358;2024-01-11T10:34:20;88590.00;;;-0.98;69.50
8047;BME280;74083;42.516;23.358;2024-01-11T10:37:07;88583.31;;;-0.94;69.46
8047;BME280;74083;42.516;23.358;2024-01-11T10:39:55;88587.28;;;-0.90;69.66
8047;BME280;74083;42.516;23.358;2024-01-11T10:42:44;88588.19;;;-0.93;68.98
8047;BME280;74083;42.516;23.358;2024-01-11T10:45:31;88574.81;;;-0.87;69.48
8047;BME280;74083;42.516;23.358;2024-01-11T10:48:24;88569.06;;;-0.88;69.13
8047;BME280;74083;42.516;23.358;2024-01-11T10:51:12;88563.28;;;-0.87;68.85
8047;BME280;74083;42.516;23.358;2024-01-11T10:54:02;88560.63;;;-0.81;69.22
8047;BME280;74083;42.516;23.358;2024-01-11T10:56:49;88567.94;;;-0.78;69.07
8047;BME280;74083;42.516;23.358;2024-01-11T10:59:36;88553.03;;;-0.76;69.05
8047;BME280;74083;42.516;23.358;2024-01-11T11:02:23;88539.09;;;-0.79;69.09
8047;BME280;74083;42.516;23.358;2024-01-11T11:05:10;88533.41;;;-0.81;68.59
8047;BME280;74083;42.516;23.358;2024-01-11T11:08:01;88540.59;;;-0.73;69.08
8047;BME280;74083;42.516;23.358;2024-01-11T11:10:48;88538.97;;;-0.74;68.50
8047;BME280;74083;42.516;23.358;2024-01-11T11:13:36;88533.94;;;-0.71;69.39
8047;BME280;74083;42.516;23.358;2024-01-11T11:16:22;88528.09;;;-0.69;68.58
8047;BME280;74083;42.516;23.358;2024-01-11T11:19:08;88516.56;;;-0.70;68.34
8047;BME280;74083;42.516;23.358;2024-01-11T11:21:56;88514.16;;;-0.71;68.32
8047;BME280;74083;42.516;23.358;2024-01-11T11:24:41;88507.53;;;-0.71;68.29
8047;BME280;74083;42.516;23.358;2024-01-11T11:27:28;88503.19;;;-0.64;68.03
8047;BME280;74083;42.516;23.358;2024-01-11T11:30:18;88493.28;;;-0.64;68.59
8047;BME280;74083;42.516;23.358;2024-01-11T11:33:08;88489.97;;;-0.63;68.08
8047;BME280;74083;42.516;23.358;2024-01-11T11:35:58;88488.31;;;-0.63;68.24
8047;BME280;74083;42.516;23.358;2024-01-11T11:38:44;88485.56;;;-0.55;68.99
8047;BME280;74083;42.516;23.358;2024-01-11T11:41:31;88475.69;;;-0.55;68.82
8047;BME280;74083;42.516;23.358;2024-01-11T11:44:19;88473.75;;;-0.47;68.64
8047;BME280;74083;42.516;23.358;2024-01-11T11:47:21;88472.97;;;-0.47;68.27
8047;BME280;74083;42.516;23.358;2024-01-11T11:50:08;88462.16;;;-0.45;68.56
8047;BME280;74083;42.516;23.358;2024-01-11T11:52:55;88461.13;;;-0.39;68.43
8047;BME280;74083;42.516;23.358;2024-01-11T11:55:41;88454.66;;;-0.43;67.84
8047;BME280;74083;42.516;23.358;2024-01-11T11:58:27;88448.16;;;-0.46;67.90
8047;BME280;74083;42.516;23.358;2024-01-11T12:01:15;88439.19;;;-0.48;67.99
8047;BME280;74083;42.516;23.358;2024-01-11T12:04:01;88444.97;;;-0.49;67.82
8047;BME280;74083;42.516;23.358;2024-01-11T12:06:47;88450.50;;;-0.41;68.22
8047;BME280;74083;42.516;23.358;2024-01-11T12:09:33;88446.78;;;-0.30;68.36
8047;BME280;74083;42.516;23.358;2024-01-11T12:12:19;88441.53;;;-0.21;68.15
8047;BME280;74083;42.516;23.358;2024-01-11T12:15:06;88444.03;;;-0.22;67.81
8047;BME280;74083;42.516;23.358;2024-01-11T12:17:58;88440.41;;;-0.12;68.17
8047;BME280;74083;42.516;23.358;2024-01-11T12:20:44;88439.59;;;-0.13;67.77
8047;BME280;74083;42.516;23.358;2024-01-11T12:23:30;88436.22;;;-0.12;67.83
8047;BME280;74083;42.516;23.358;2024-01-11T12:26:17;88434.53;;;-0.10;67.85
8047;BME280;74083;42.516;23.358;2024-01-11T12:29:07;88436.41;;;-0.16;67.58
8047;BME280;74083;42.516;23.358;2024-01-11T12:31:54;88434.63;;;-0.13;67.62
8047;BME280;74083;42.516;23.358;2024-01-11T12:34:43;88433.06;;;-0.15;67.55
8047;BME280;74083;42.516;23.358;2024-01-11T12:37:30;88427.09;;;-0.10;67.76
8047;BME280;74083;42.516;23.358;2024-01-11T12:40:16;88426.09;;;-0.06;67.32
8047;BME280;74083;42.516;23.358;2024-01-11T12:43:01;88424.63;;;-0.10;67.34
8047;BME280;74083;42.516;23.358;2024-01-11T12:45:47;88422.16;;;-0.10;67.46
8047;BME280;74083;42.516;23.358;2024-01-11T12:48:33;88427.31;;;-0.16;67.32
8047;BME280;74083;42.516;23.358;2024-01-11T12:51:20;88416.78;;;-0.21;67.33
8047;BME280;74083;42.516;23.358;2024-01-11T12:54:10;88419.06;;;-0.16;67.67
8047;BME280;74083;42.516;23.358;2024-01-11T12:56:56;88414.13;;;-0.16;67.86
8047;BME280;74083;42.516;23.358;2024-01-11T12:59:42;88410.72;;;-0.14;67.96
8047;BME280;74083;42.516;23.358;2024-01-11T13:02:30;88413.16;;;-0.12;67.58
8047;BME280;74083;42.516;23.358;2024-01-11T13:05:16;88401.56;;;-0.12;67.51
8047;BME280;74083;42.516;23.358;2024-01-11T13:08:07;88403.03;;;-0.06;67.63
8047;BME280;74083;42.516;23.358;2024-01-11T13:10:53;88404.81;;;-0.10;67.47
8047;BME280;74083;42.516;23.358;2024-01-11T13:13:38;88405.28;;;0.00;67.50
8047;BME280;74083;42.516;23.358;2024-01-11T13:16:24;88405.13;;;0.05;67.61
8047;BME280;74083;42.516;23.358;2024-01-11T13:19:10;88404.28;;;0.06;67.16
8047;BME280;74083;42.516;23.358;2024-01-11T13:21:55;88399.22;;;0.09;67.46
8047;BME280;74083;42.516;23.358;2024-01-11T13:24:42;88404.94;;;0.09;67.16
8047;BME280;74083;42.516;23.358;2024-01-11T13:27:28;88394.13;;;0.12;67.25
8047;BME280;74083;42.516;23.358;2024-01-11T13:30:14;88396.84;;;0.06;66.83
8047;BME280;74083;42.516;23.358;2024-01-11T13:33:00;88391.78;;;0.09;67.18
8047;BME280;74083;42.516;23.358;2024-01-11T13:35:46;88386.81;;;0.09;66.77
8047;BME280;74083;42.516;23.358;2024-01-11T13:38:31;88376.09;;;0.08;67.18
8047;BME280;74083;42.516;23.358;2024-01-11T13:41:18;88372.69;;;0.11;66.99
8047;BME280;74083;42.516;23.358;2024-01-11T13:44:04;88378.41;;;0.13;66.76
8047;BME280;74083;42.516;23.358;2024-01-11T13:46:50;88373.66;;;0.07;66.95
8047;BME280;74083;42.516;23.358;2024-01-11T13:49:36;88372.84;;;0.06;67.25
8047;BME280;74083;42.516;23.358;2024-01-11T13:52:22;88372.94;;;0.05;67.12
8047;BME280;74083;42.516;23.358;2024-01-11T13:55:07;88361.50;;;0.00;66.88
8047;BME280;74083;42.516;23.358;2024-01-11T13:57:56;88359.09;;;-0.01;67.27
8047;BME280;74083;42.516;23.358;2024-01-11T14:00:41;88365.50;;;0.05;67.05
8047;BME280;74083;42.516;23.358;2024-01-11T14:03:27;88363.03;;;0.05;67.06
8047;BME280;74083;42.516;23.358;2024-01-11T14:06:12;88353.84;;;0.07;67.10
8047;BME280;74083;42.516;23.358;2024-01-11T14:08:58;88353.00;;;0.08;66.85
8047;BME280;74083;42.516;23.358;2024-01-11T14:11:44;88349.09;;;0.02;66.91
8047;BME280;74083;42.516;23.358;2024-01-11T14:14:34;88355.59;;;0.05;66.63
8047;BME280;74083;42.516;23.358;2024-01-11T14:17:19;88353.03;;;0.06;66.90
8047;BME280;74083;42.516;23.358;2024-01-11T14:20:07;88344.94;;;0.03;66.84
8047;BME280;74083;42.516;23.358;2024-01-11T14:22:56;88346.03;;;-0.05;67.14
8047;BME280;74083;42.516;23.358;2024-01-11T14:25:43;88345.22;;;-0.05;66.96
8047;BME280;74083;42.516;23.358;2024-01-11T14:28:28;88340.38;;;-0.08;66.92
8047;BME280;74083;42.516;23.358;2024-01-11T14:31:15;88337.97;;;-0.10;66.78
8047;BME280;74083;42.516;23.358;2024-01-11T14:34:01;88328.22;;;-0.14;66.87
8047;BME280;74083;42.516;23.358;2024-01-11T14:36:46;88334.16;;;-0.18;67.23
8047;BME280;74083;42.516;23.358;2024-01-11T14:39:32;88337.56;;;-0.21;67.34
8047;BME280;74083;42.516;23.358;2024-01-11T14:42:18;88330.16;;;-0.22;67.42
8047;BME280;74083;42.516;23.358;2024-01-11T14:45:05;88332.72;;;-0.24;67.65
8047;BME280;74083;42.516;23.358;2024-01-11T14:47:52;88326.19;;;-0.26;67.81
8047;BME280;74083;42.516;23.358;2024-01-11T14:50:38;88321.31;;;-0.28;67.83
8047;BME280;74083;42.516;23.358;2024-01-11T14:53:24;88324.53;;;-0.26;67.77
8047;BME280;74083;42.516;23.358;2024-01-11T14:56:11;88322.13;;;-0.27;67.72
8047;BME280;74083;42.516;23.358;2024-01-11T14:58:57;88320.38;;;-0.25;67.71